createdAt,value
2019-05-22T00:00:53.841Z,1.20
2019-05-22T00:03:26.235Z,1.40
2019-05-22T00:05:56.395Z,1.40
2019-05-22T00:08:26.130Z,1.80
2019-05-22T00:10:57.248Z,1.50
2019-05-22T00:13:30.977Z,1.30
2019-05-22T00:16:01.868Z,1.50
2019-05-22T00:18:31.546Z,1.20
2019-05-22T00:21:01.115Z,1.37
2019-05-22T00:23:32.182Z,1.20
2019-05-22T00:26:00.994Z,1.40
2019-05-22T00:28:30.462Z,1.43
2019-05-22T00:31:00.099Z,1.37
2019-05-22T00:33:31.245Z,1.27
2019-05-22T00:36:02.127Z,1.90
2019-05-22T00:38:31.527Z,1.57
2019-05-22T00:41:07.664Z,2.13
2019-05-22T00:43:44.542Z,1.57
2019-05-22T00:46:16.691Z,1.20
2019-05-22T00:48:47.748Z,1.67
2019-05-22T00:51:47.528Z,1.30
2019-05-22T00:54:30.106Z,1.30
2019-05-22T00:57:16.799Z,1.77
2019-05-22T00:59:46.258Z,1.33
2019-05-22T01:02:18.757Z,1.40
2019-05-22T01:04:49.242Z,1.53
2019-05-22T01:07:18.642Z,1.30
2019-05-22T01:09:50.520Z,1.77
2019-05-22T01:12:32.217Z,1.70
2019-05-22T01:15:07.871Z,1.40
2019-05-22T01:17:38.053Z,1.37
2019-05-22T01:20:10.306Z,1.90
2019-05-22T01:22:41.772Z,1.67
2019-05-22T01:25:11.435Z,1.70
2019-05-22T01:27:41.754Z,1.40
2019-05-22T01:30:15.463Z,1.13
2019-05-22T01:32:47.581Z,1.30
2019-05-22T01:35:18.809Z,1.30
2019-05-22T01:37:47.631Z,1.23
2019-05-22T01:40:27.368Z,1.57
2019-05-22T01:42:58.843Z,1.67
2019-05-22T01:45:27.683Z,1.47
2019-05-22T01:48:05.274Z,1.13
2019-05-22T01:50:52.854Z,1.10
2019-05-22T01:53:23.887Z,1.20
2019-05-22T01:55:58.366Z,1.43
2019-05-22T01:58:29.722Z,1.00
2019-05-22T02:00:59.907Z,1.00
2019-05-22T02:03:30.265Z,0.70
2019-05-22T02:06:00.737Z,1.30
2019-05-22T02:08:30.479Z,0.83
2019-05-22T02:11:01.614Z,1.00
2019-05-22T02:13:35.495Z,0.93
2019-05-22T02:16:08.084Z,0.90
2019-05-22T02:18:37.878Z,0.80
2019-05-22T02:21:06.487Z,0.90
2019-05-22T02:23:35.628Z,1.13
2019-05-22T02:26:07.026Z,1.20
2019-05-22T02:28:36.874Z,1.40
2019-05-22T02:31:07.363Z,1.10
2019-05-22T02:33:55.451Z,1.20
2019-05-22T02:36:24.822Z,1.40
2019-05-22T02:38:54.773Z,1.10
2019-05-22T02:41:25.997Z,0.80
2019-05-22T02:43:55.751Z,1.10
2019-05-22T02:46:24.457Z,1.00
2019-05-22T02:48:55.870Z,1.30
2019-05-22T02:51:24.260Z,1.30
2019-05-22T02:53:54.856Z,1.30
2019-05-22T02:56:28.088Z,1.07
2019-05-22T02:58:57.791Z,1.20
2019-05-22T03:01:26.780Z,1.07
2019-05-22T03:03:55.752Z,1.00
2019-05-22T03:06:24.452Z,1.27
2019-05-22T03:09:31.070Z,1.07
2019-05-22T03:12:03.212Z,1.37
2019-05-22T03:14:34.525Z,0.97
2019-05-22T03:17:05.153Z,1.57
2019-05-22T03:19:38.922Z,0.90
2019-05-22T03:22:23.524Z,1.00
2019-05-22T03:24:53.435Z,1.80
2019-05-22T03:27:36.371Z,1.30
2019-05-22T03:30:10.290Z,1.50
2019-05-22T03:32:43.747Z,1.13
2019-05-22T03:35:12.719Z,1.63
2019-05-22T03:37:42.922Z,1.50
2019-05-22T03:40:12.570Z,1.20
2019-05-22T03:42:41.368Z,2.23
2019-05-22T03:45:11.185Z,1.60
2019-05-22T03:47:42.280Z,1.80
2019-05-22T03:50:11.763Z,1.30
2019-05-22T03:52:40.557Z,1.20
2019-05-22T03:55:11.014Z,1.80
2019-05-22T03:57:39.339Z,1.30
2019-05-22T04:00:10.780Z,2.20
2019-05-22T04:02:40.058Z,2.50
2019-05-22T04:05:09.993Z,2.20
2019-05-22T04:07:39.002Z,1.77
2019-05-22T04:10:10.429Z,2.77
2019-05-22T04:12:40.076Z,2.60
2019-05-22T04:15:10.228Z,1.57
2019-05-22T04:17:39.511Z,1.80
2019-05-22T04:20:09.033Z,2.27
2019-05-22T04:22:38.835Z,1.97
2019-05-22T04:25:09.139Z,1.67
2019-05-22T04:27:37.838Z,1.50
2019-05-22T04:30:08.234Z,1.07
2019-05-22T04:32:39.616Z,1.20
2019-05-22T04:35:11.272Z,2.07
2019-05-22T04:37:40.520Z,1.63
2019-05-22T04:40:46.135Z,2.80
2019-05-22T04:43:20.123Z,2.90
2019-05-22T04:45:47.529Z,1.40
2019-05-22T04:48:17.115Z,1.30
2019-05-22T04:50:46.258Z,1.57
2019-05-22T04:53:15.036Z,1.20
2019-05-22T04:55:43.728Z,1.13
2019-05-22T04:58:14.152Z,0.90
2019-05-22T05:00:43.251Z,0.90
2019-05-22T05:03:12.751Z,1.03
2019-05-22T05:05:43.472Z,1.40
2019-05-22T05:08:14.081Z,0.80
2019-05-22T05:10:43.986Z,1.20
2019-05-22T05:13:13.143Z,1.20
2019-05-22T05:15:41.902Z,0.90
2019-05-22T05:18:10.602Z,0.70
2019-05-22T05:20:39.309Z,1.00
2019-05-22T05:23:08.115Z,0.83
2019-05-22T05:25:37.638Z,0.80
2019-05-22T05:28:08.074Z,0.73
2019-05-22T05:30:36.855Z,0.60
2019-05-22T05:33:06.050Z,1.10
2019-05-22T05:35:35.123Z,1.10
2019-05-22T05:38:05.199Z,0.97
2019-05-22T05:40:40.176Z,1.10
2019-05-22T05:43:15.547Z,1.30
2019-05-22T05:45:46.662Z,0.97
2019-05-22T05:48:25.766Z,1.67
2019-05-22T05:51:25.471Z,0.80
2019-05-22T05:53:59.641Z,1.57
2019-05-22T05:56:30.147Z,1.30
2019-05-22T05:59:00.229Z,1.20
2019-05-22T06:01:32.565Z,1.30
2019-05-22T06:04:01.881Z,1.70
2019-05-22T06:07:15.817Z,1.30
2019-05-22T06:09:44.600Z,1.60
2019-05-22T06:12:14.447Z,1.30
2019-05-22T06:14:43.180Z,2.37
2019-05-22T06:18:02.067Z,1.80
2019-05-22T06:20:31.125Z,2.10
2019-05-22T06:23:49.837Z,1.67
2019-05-22T06:26:54.765Z,1.87
2019-05-22T06:29:27.750Z,1.97
2019-05-22T06:32:40.908Z,2.00
2019-05-22T06:35:09.805Z,2.73
2019-05-22T06:37:45.571Z,2.33
2019-05-22T06:40:14.613Z,2.60
2019-05-22T06:42:48.148Z,2.90
2019-05-22T06:45:17.667Z,3.10
2019-05-22T06:47:46.729Z,2.70
2019-05-22T06:50:15.241Z,2.73
2019-05-22T06:52:44.319Z,3.27
2019-05-22T06:55:13.691Z,3.17
2019-05-22T06:57:42.775Z,3.27
2019-05-22T07:00:17.964Z,3.60
2019-05-22T07:02:46.982Z,3.00
2019-05-22T07:05:16.150Z,2.90
2019-05-22T07:07:45.348Z,2.47
2019-05-22T07:10:14.538Z,2.93
2019-05-22T07:12:50.266Z,2.33
2019-05-22T07:15:36.640Z,2.17
2019-05-22T07:18:07.228Z,4.43
2019-05-22T07:20:37.983Z,2.33
2019-05-22T07:23:07.849Z,1.90
2019-05-22T07:25:37.370Z,1.67
2019-05-22T07:28:08.017Z,2.27
2019-05-22T07:30:37.185Z,1.90
2019-05-22T07:33:06.240Z,1.57
2019-05-22T07:35:56.345Z,1.90
2019-05-22T07:38:05.608Z,1.60
2019-05-22T07:40:35.631Z,1.33
2019-05-22T07:43:05.445Z,1.63
2019-05-22T07:45:35.044Z,1.33
2019-05-22T07:48:04.626Z,1.80
2019-05-22T07:50:36.572Z,1.53
2019-05-22T07:53:06.167Z,1.20
2019-05-22T07:55:34.887Z,1.10
2019-05-22T07:58:11.878Z,1.27
2019-05-22T08:00:43.711Z,1.30
2019-05-22T08:03:13.606Z,1.30
2019-05-22T08:05:42.701Z,10.47
2019-05-22T08:08:11.949Z,4.97
2019-05-22T08:10:42.218Z,11.93
2019-05-22T08:13:11.323Z,3.13
2019-05-22T08:15:40.303Z,2.90
2019-05-22T08:18:09.558Z,3.13
2019-05-22T08:20:38.167Z,3.57
2019-05-22T08:23:09.458Z,3.07
2019-05-22T08:25:38.638Z,2.30
2019-05-22T08:28:08.213Z,2.67
2019-05-22T08:30:37.348Z,2.30
2019-05-22T08:33:08.046Z,2.57
2019-05-22T08:35:37.149Z,1.63
2019-05-22T08:38:07.986Z,2.30
2019-05-22T08:40:36.656Z,2.33
2019-05-22T08:43:05.865Z,2.13
2019-05-22T08:45:35.721Z,2.90
2019-05-22T08:48:05.431Z,2.50
2019-05-22T08:50:34.717Z,3.50
2019-05-22T08:53:03.879Z,4.20
2019-05-22T08:55:34.638Z,5.17
2019-05-22T08:58:04.207Z,2.20
2019-05-22T09:00:33.422Z,2.57
2019-05-22T09:03:02.126Z,2.17
2019-05-22T09:05:31.651Z,2.20
2019-05-22T09:08:00.758Z,1.77
2019-05-22T09:10:30.004Z,2.63
2019-05-22T09:12:59.203Z,1.80
2019-05-22T09:15:28.911Z,1.60
2019-05-22T09:17:58.731Z,1.87
2019-05-22T09:20:27.791Z,1.87
2019-05-22T09:22:57.512Z,1.63
2019-05-22T09:25:26.702Z,2.20
2019-05-22T09:27:56.015Z,1.90
2019-05-22T09:30:25.176Z,1.50
2019-05-22T09:32:56.052Z,1.53
2019-05-22T09:35:25.956Z,2.47
2019-05-22T09:37:55.256Z,1.97
2019-05-22T09:40:24.412Z,9.50
2019-05-22T09:42:53.828Z,2.13
2019-05-22T09:45:22.950Z,1.80
2019-05-22T09:47:51.919Z,1.87
2019-05-22T09:50:23.029Z,2.00
2019-05-22T09:52:57.695Z,1.67
2019-05-22T09:55:23.409Z,1.60
2019-05-22T09:57:52.793Z,1.40
2019-05-22T10:00:22.176Z,1.60
2019-05-22T10:02:51.119Z,1.30
2019-05-22T10:05:21.767Z,1.87
2019-05-22T10:08:00.564Z,1.90
2019-05-22T10:10:21.143Z,1.97
2019-05-22T10:12:50.691Z,3.00
2019-05-22T10:15:21.059Z,2.70
2019-05-22T10:17:50.668Z,6.33
2019-05-22T10:20:20.831Z,3.40
2019-05-22T10:22:50.421Z,3.40
2019-05-22T10:25:19.809Z,4.67
2019-05-22T10:27:49.730Z,4.93
2019-05-22T10:30:19.176Z,2.87
2019-05-22T10:32:48.270Z,3.00
2019-05-22T10:35:18.083Z,2.50
2019-05-22T10:37:47.482Z,2.87
2019-05-22T10:40:16.652Z,2.70
2019-05-22T10:42:46.491Z,2.80
2019-05-22T10:45:15.583Z,2.93
2019-05-22T10:47:45.192Z,3.00
2019-05-22T10:50:14.998Z,3.87
2019-05-22T10:52:43.427Z,3.30
2019-05-22T10:55:13.004Z,3.63
2019-05-22T10:57:43.460Z,3.27
2019-05-22T11:00:15.133Z,3.47
2019-05-22T11:07:21.501Z,3.37
2019-05-22T11:46:23.818Z,4.00
2019-05-22T11:49:19.595Z,3.50
2019-05-22T11:56:32.188Z,7.10
2019-05-22T11:59:42.876Z,4.50
2019-05-22T12:03:08.593Z,2.77
2019-05-22T12:08:57.030Z,2.60
2019-05-22T12:11:25.603Z,2.63
2019-05-22T12:13:54.298Z,3.50
2019-05-22T12:16:23.098Z,5.93
2019-05-22T12:18:52.183Z,5.53
2019-05-22T12:21:20.903Z,4.30
2019-05-22T12:23:49.742Z,4.03
2019-05-22T12:26:18.462Z,4.60
2019-05-22T12:28:47.182Z,4.73
2019-05-22T12:31:15.897Z,3.87
2019-05-22T12:33:44.631Z,3.83
2019-05-22T12:36:13.885Z,3.63
2019-05-22T12:38:43.329Z,2.70
2019-05-22T12:41:14.023Z,3.60
2019-05-22T12:43:44.928Z,3.10
2019-05-22T12:46:13.270Z,3.13
2019-05-22T12:48:42.619Z,2.77
2019-05-22T12:51:11.379Z,3.10
2019-05-22T12:53:39.793Z,3.00
2019-05-22T12:56:08.578Z,2.40
2019-05-22T12:58:40.108Z,2.53
2019-05-22T13:01:15.780Z,3.00
2019-05-22T13:03:44.892Z,2.60
2019-05-22T13:06:13.668Z,2.37
2019-05-22T13:08:42.815Z,2.50
2019-05-22T13:11:12.699Z,3.00
2019-05-22T13:13:41.775Z,2.90
2019-05-22T13:16:10.481Z,3.03
2019-05-22T13:18:39.290Z,3.63
2019-05-22T13:21:09.423Z,3.00
2019-05-22T13:23:39.305Z,3.60
2019-05-22T13:26:08.063Z,2.90
2019-05-22T13:28:37.506Z,3.30
2019-05-22T13:31:07.373Z,3.60
2019-05-22T13:33:37.776Z,3.00
2019-05-22T13:36:06.541Z,3.07
2019-05-22T13:38:35.512Z,4.10
2019-05-22T13:41:04.494Z,3.83
2019-05-22T13:43:33.877Z,4.17
2019-05-22T13:46:02.655Z,3.87
2019-05-22T13:48:31.636Z,3.63
2019-05-22T13:51:00.437Z,4.03
2019-05-22T13:53:29.576Z,3.73
2019-05-22T13:55:58.514Z,3.50
2019-05-22T13:58:27.341Z,3.67
2019-05-22T14:00:56.505Z,3.50
2019-05-22T14:03:25.670Z,3.50
2019-05-22T14:05:55.358Z,3.50
2019-05-22T14:08:23.820Z,3.37
2019-05-22T14:10:52.801Z,4.20
2019-05-22T14:13:21.892Z,4.53
2019-05-22T14:15:56.545Z,4.63
2019-05-22T14:18:20.665Z,3.80
2019-05-22T14:20:49.991Z,3.53
2019-05-22T14:23:19.294Z,3.30
2019-05-22T14:25:49.582Z,2.93
2019-05-22T14:28:19.264Z,3.10
2019-05-22T14:30:49.135Z,4.20
2019-05-22T14:33:18.031Z,4.87
2019-05-22T14:35:49.319Z,4.40
2019-05-22T14:38:17.539Z,4.27
2019-05-22T14:40:45.855Z,3.00
2019-05-22T14:43:14.571Z,4.23
2019-05-22T14:45:43.517Z,3.27
2019-05-22T14:48:12.936Z,4.03
2019-05-22T14:50:42.703Z,4.90
2019-05-22T14:53:11.516Z,4.70
2019-05-22T14:55:40.797Z,4.80
2019-05-22T14:58:09.930Z,5.33
2019-05-22T15:00:38.682Z,4.80
2019-05-22T15:03:07.482Z,5.27
2019-05-22T15:05:36.247Z,5.80
2019-05-22T15:08:06.049Z,5.70
2019-05-22T15:10:35.983Z,7.20
2019-05-22T15:13:05.185Z,8.40
2019-05-22T15:15:33.992Z,8.83
2019-05-22T15:18:03.864Z,8.60
2019-05-22T15:20:37.649Z,7.57
2019-05-22T15:23:06.549Z,9.00
2019-05-22T15:41:26.690Z,10.63
2019-05-22T15:47:52.467Z,14.80
2019-05-22T15:50:06.168Z,13.77
2019-05-22T15:52:35.081Z,13.07
2019-05-22T15:55:07.014Z,11.43
2019-05-22T15:57:37.843Z,12.37
2019-05-22T16:00:08.424Z,11.33
2019-05-22T16:02:38.789Z,10.50
2019-05-22T16:05:07.589Z,9.93
2019-05-22T16:07:37.283Z,10.60
2019-05-22T16:10:06.699Z,10.60
2019-05-22T16:12:35.675Z,10.13
2019-05-22T16:15:06.846Z,9.87
2019-05-22T16:17:36.078Z,11.20
2019-05-22T16:20:04.882Z,10.50
2019-05-22T16:22:33.919Z,11.73
2019-05-22T16:25:03.467Z,9.80
2019-05-22T16:27:32.871Z,10.97
2019-05-22T16:30:02.223Z,11.50
2019-05-22T16:32:31.616Z,12.30
2019-05-22T16:35:00.587Z,14.07
2019-05-22T16:37:28.942Z,13.27
2019-05-22T16:39:57.702Z,12.63
2019-05-22T16:42:27.161Z,11.30
2019-05-22T16:44:55.996Z,11.77
2019-05-22T16:47:24.887Z,10.50
2019-05-22T16:49:54.439Z,10.33
2019-05-22T16:52:24.477Z,11.13
2019-05-22T16:54:53.286Z,13.03
2019-05-22T16:57:21.659Z,12.30
2019-05-22T16:59:51.064Z,13.33
2019-05-22T17:02:20.087Z,12.93
2019-05-22T17:04:49.067Z,12.50
2019-05-22T17:07:18.184Z,12.97
2019-05-22T17:09:48.082Z,13.50
2019-05-22T17:12:18.168Z,11.87
2019-05-22T17:14:47.298Z,13.83
2019-05-22T17:17:17.546Z,11.83
2019-05-22T17:19:45.935Z,13.20
2019-05-22T17:22:16.254Z,12.57
2019-05-22T17:24:45.020Z,14.30
2019-05-22T17:27:15.284Z,13.60
2019-05-22T17:29:45.268Z,13.37
2019-05-22T17:32:14.931Z,14.30
2019-05-22T17:34:43.947Z,13.63
2019-05-22T17:37:15.749Z,13.20
2019-05-22T17:39:45.293Z,11.93
2019-05-22T17:42:15.370Z,13.70
2019-05-22T17:44:45.767Z,13.80
2019-05-22T17:47:14.544Z,14.77
2019-05-22T17:49:43.287Z,14.87
2019-05-22T17:52:12.607Z,14.63
2019-05-22T17:54:41.973Z,16.47
2019-05-22T17:57:11.496Z,19.60
2019-05-22T17:59:40.994Z,18.80
2019-05-22T18:02:11.410Z,19.33
2019-05-22T18:04:40.216Z,21.53
2019-05-22T18:07:09.340Z,24.50
2019-05-22T18:09:38.323Z,20.57
2019-05-22T18:12:09.291Z,18.80
2019-05-22T18:14:38.849Z,19.70
2019-05-22T18:17:07.675Z,21.20
2019-05-22T18:19:36.593Z,22.63
2019-05-22T18:22:06.085Z,22.20
2019-05-22T18:24:34.903Z,23.20
2019-05-22T18:27:03.214Z,24.53
2019-05-22T18:29:31.986Z,23.20
2019-05-22T18:32:01.051Z,22.97
2019-05-22T18:34:29.854Z,24.63
2019-05-22T18:36:58.568Z,27.20
2019-05-22T18:39:27.383Z,25.60
2019-05-22T18:41:55.790Z,23.03
2019-05-22T18:44:24.560Z,26.30
2019-05-22T18:46:53.359Z,28.20
2019-05-22T18:49:22.123Z,27.77
2019-05-22T18:51:50.898Z,30.67
2019-05-22T18:54:19.707Z,30.10
2019-05-22T18:56:48.523Z,28.67
2019-05-22T18:59:17.227Z,30.00
2019-05-22T19:01:46.034Z,30.43
2019-05-22T19:04:14.464Z,28.10
2019-05-22T19:06:43.457Z,30.43
2019-05-22T19:09:14.753Z,28.70
2019-05-22T19:11:43.647Z,27.30
2019-05-22T19:14:12.591Z,27.80
2019-05-22T19:16:41.396Z,26.10
2019-05-22T19:19:11.155Z,27.67
2019-05-22T19:21:45.783Z,29.80
2019-05-22T19:24:15.694Z,51.27
2019-05-22T19:26:44.100Z,44.33
2019-05-22T19:29:13.026Z,46.40
2019-05-22T19:31:41.823Z,46.20
2019-05-22T19:34:13.676Z,42.60
2019-05-22T19:36:42.379Z,39.50
2019-05-22T19:39:11.190Z,32.70
2019-05-22T19:41:42.294Z,32.80
2019-05-22T19:44:11.434Z,29.43
2019-05-22T19:46:40.228Z,29.90
2019-05-22T19:49:09.243Z,26.63
2019-05-22T19:51:39.515Z,30.10
2019-05-22T19:54:09.161Z,31.50
2019-05-22T19:56:39.191Z,34.70
2019-05-22T19:59:08.598Z,33.83
2019-05-22T20:01:37.667Z,35.80
2019-05-22T20:04:06.773Z,33.67
2019-05-22T20:06:38.256Z,31.20
2019-05-22T20:09:08.993Z,31.50
2019-05-22T20:11:37.656Z,27.20
2019-05-22T20:14:06.352Z,30.53
2019-05-22T20:16:35.575Z,28.30
2019-05-22T20:19:04.899Z,30.40
2019-05-22T20:21:34.752Z,32.20
2019-05-22T20:24:04.035Z,30.47
2019-05-22T20:26:32.807Z,29.50
2019-05-22T20:29:01.970Z,29.70
2019-05-22T20:31:31.819Z,29.30
2019-05-22T20:34:00.160Z,27.27
2019-05-22T20:36:31.011Z,27.43
2019-05-22T20:38:59.859Z,27.80
2019-05-22T20:41:30.042Z,29.77
2019-05-22T20:43:59.693Z,30.20
2019-05-22T20:46:30.747Z,30.27
2019-05-22T20:49:00.917Z,28.33
2019-05-22T20:51:30.987Z,30.37
2019-05-22T20:54:01.001Z,25.50
2019-05-22T20:56:29.385Z,29.13
2019-05-22T20:58:59.511Z,29.13
2019-05-22T21:01:28.332Z,29.97
2019-05-22T21:03:57.417Z,32.30
2019-05-22T21:06:26.772Z,29.10
2019-05-22T21:08:57.551Z,32.13
2019-05-22T21:11:27.367Z,30.73
2019-05-22T21:13:56.323Z,29.90
2019-05-22T21:16:26.242Z,27.23
2019-05-22T21:18:57.162Z,33.33
2019-05-22T21:21:26.374Z,30.90
2019-05-22T21:24:09.607Z,34.23
2019-05-22T21:26:26.069Z,33.03
2019-05-22T21:28:55.707Z,33.43
2019-05-22T21:31:25.471Z,32.80
2019-05-22T21:33:55.824Z,33.23
2019-05-22T21:36:25.314Z,31.50
2019-05-22T21:38:53.740Z,33.37
2019-05-22T21:41:23.058Z,34.60
2019-05-22T21:43:52.784Z,32.07
2019-05-22T21:46:21.904Z,36.70
2019-05-22T21:48:53.393Z,36.60
2019-05-22T21:51:24.000Z,32.53
2019-05-22T21:53:54.130Z,32.50
2019-05-22T21:56:23.662Z,30.83
2019-05-22T21:58:52.640Z,28.57
2019-05-22T22:01:31.678Z,32.10
2019-05-22T22:04:20.890Z,34.57
2019-05-22T22:06:50.081Z,31.43
2019-05-22T22:09:20.734Z,28.87
2019-05-22T22:11:49.979Z,29.90
2019-05-22T22:14:19.337Z,31.17
2019-05-22T22:16:55.467Z,31.93
2019-05-22T22:19:23.855Z,28.90
2019-05-22T22:21:54.298Z,30.07
2019-05-22T22:24:24.791Z,25.10
2019-05-22T22:26:56.864Z,29.13
2019-05-22T22:29:26.176Z,28.97
2019-05-22T22:31:59.609Z,28.60
2019-05-22T22:34:44.551Z,27.13
2019-05-22T22:37:14.392Z,28.37
2019-05-22T22:39:47.616Z,29.20
2019-05-22T22:42:18.116Z,26.73
2019-05-22T22:44:49.182Z,29.40
2019-05-22T22:47:22.455Z,28.40
2019-05-22T22:49:52.202Z,26.00
2019-05-22T22:52:20.973Z,26.67
2019-05-22T22:54:51.283Z,27.60
2019-05-22T22:57:20.703Z,26.13
2019-05-22T22:59:50.578Z,27.23
2019-05-22T23:02:28.635Z,26.37
2019-05-22T23:04:57.817Z,25.40
2019-05-22T23:07:26.843Z,23.80
2019-05-22T23:09:58.834Z,26.50
2019-05-22T23:12:28.796Z,22.67
2019-05-22T23:14:57.818Z,25.20
2019-05-22T23:17:31.511Z,24.37
2019-05-22T23:19:59.880Z,25.20
2019-05-22T23:22:32.640Z,25.70
2019-05-22T23:25:03.368Z,24.77
2019-05-22T23:27:33.119Z,24.67
2019-05-22T23:30:02.891Z,25.20
2019-05-22T23:32:33.204Z,24.80
2019-05-22T23:35:03.071Z,23.13
2019-05-22T23:37:31.898Z,24.83
2019-05-22T23:40:01.492Z,25.80
2019-05-22T23:42:43.444Z,24.97
2019-05-22T23:45:16.947Z,25.17
2019-05-22T23:48:02.350Z,25.67
2019-05-22T23:50:32.265Z,25.10
2019-05-22T23:53:05.626Z,26.57
2019-05-22T23:55:35.461Z,26.37
2019-05-22T23:58:05.845Z,27.80
